Asherville, Missouri
Current Conditions -  °F | °C
As of 7:53 PM on Wednesday 26 Nov 2014 (Local Time) from KPOF Reporting Station
Broken Clouds Broken Clouds  
Wind Chill: 33°   Ceiling: 5500
Heat Index: 37°   Visibility: 10mi
Dew Point: 32°   Wind: 5mph
Humidity: 82%   Direction: 250°WSW
Pressure: 30.1"   Gusts: NA
Location:  36.9506°N, 90.1582°W
Report Text: KPOF 270153Z AUTO 25004KT 10SM BKN055 BKN070 03/00 A3010 RMK AO2 SLP197 T00280000
Loading
Personal Weather Stations






























Interactive Weather Map New forecast layout! Learn more

10-Day Weather Forecast

Advertisements
Track Severe Weather on mobile